sensor_id;sensor_type;location;lat;lon;timestamp;temperature;humidity
14170;DHT22;63889;50.596;8.690;2022-11-20T00:00:55;2.10;99.90
14170;DHT22;63889;50.596;8.690;2022-11-20T00:03:21;2.10;99.90
14170;DHT22;63889;50.596;8.690;2022-11-20T00:05:47;2.10;99.90
14170;DHT22;63889;50.596;8.690;2022-11-20T00:08:12;2.00;99.90
14170;DHT22;63889;50.596;8.690;2022-11-20T00:10:41;2.00;99.90
14170;DHT22;63889;50.596;8.690;2022-11-20T00:13:07;2.10;99.90
14170;DHT22;63889;50.596;8.690;2022-11-20T00:15:33;2.10;99.90
14170;DHT22;63889;50.596;8.690;2022-11-20T00:17:59;2.10;99.90
14170;DHT22;63889;50.596;8.690;2022-11-20T00:20:25;2.00;99.90
14170;DHT22;63889;50.596;8.690;2022-11-20T00:22:50;1.90;99.90
14170;DHT22;63889;50.596;8.690;2022-11-20T00:25:16;2.00;99.90
14170;DHT22;63889;50.596;8.690;2022-11-20T00:27:42;2.10;99.90
14170;DHT22;63889;50.596;8.690;2022-11-20T00:30:08;2.10;99.90
14170;DHT22;63889;50.596;8.690;2022-11-20T00:32:33;2.20;99.90
14170;DHT22;63889;50.596;8.690;2022-11-20T00:34:59;2.20;99.90
14170;DHT22;63889;50.596;8.690;2022-11-20T00:37:25;2.30;99.90
14170;DHT22;63889;50.596;8.690;2022-11-20T00:39:51;2.30;99.90
14170;DHT22;63889;50.596;8.690;2022-11-20T00:42:17;2.40;99.90
14170;DHT22;63889;50.596;8.690;2022-11-20T00:44:42;2.40;99.90
14170;DHT22;63889;50.596;8.690;2022-11-20T00:47:08;2.30;99.90
14170;DHT22;63889;50.596;8.690;2022-11-20T00:49:34;2.30;99.90
14170;DHT22;63889;50.596;8.690;2022-11-20T00:51:59;2.30;99.90
14170;DHT22;63889;50.596;8.690;2022-11-20T00:54:25;2.30;99.90
14170;DHT22;63889;50.596;8.690;2022-11-20T00:56:53;2.30;99.90
14170;DHT22;63889;50.596;8.690;2022-11-20T00:59:18;2.20;99.90
14170;DHT22;63889;50.596;8.690;2022-11-20T01:01:44;2.30;99.90
14170;DHT22;63889;50.596;8.690;2022-11-20T01:04:09;2.40;99.90
14170;DHT22;63889;50.596;8.690;2022-11-20T01:06:37;2.30;99.90
14170;DHT22;63889;50.596;8.690;2022-11-20T01:09:12;2.40;99.90
14170;DHT22;63889;50.596;8.690;2022-11-20T01:11:40;2.30;99.90
14170;DHT22;63889;50.596;8.690;2022-11-20T01:14:10;2.30;99.90
14170;DHT22;63889;50.596;8.690;2022-11-20T01:16:38;2.20;99.90
14170;DHT22;63889;50.596;8.690;2022-11-20T01:19:06;2.10;99.90
14170;DHT22;63889;50.596;8.690;2022-11-20T01:21:34;2.00;99.90
14170;DHT22;63889;50.596;8.690;2022-11-20T01:24:01;1.90;99.90
14170;DHT22;63889;50.596;8.690;2022-11-20T01:26:31;2.10;99.90
14170;DHT22;63889;50.596;8.690;2022-11-20T01:28:57;2.10;99.90
14170;DHT22;63889;50.596;8.690;2022-11-20T01:31:32;2.00;99.90
14170;DHT22;63889;50.596;8.690;2022-11-20T01:34:01;1.90;99.90
14170;DHT22;63889;50.596;8.690;2022-11-20T01:36:29;1.90;99.90
14170;DHT22;63889;50.596;8.690;2022-11-20T01:38:58;2.10;99.90
14170;DHT22;63889;50.596;8.690;2022-11-20T01:41:29;2.20;99.90
14170;DHT22;63889;50.596;8.690;2022-11-20T01:44:16;2.20;99.90
14170;DHT22;63889;50.596;8.690;2022-11-20T01:47:21;2.30;99.90
14170;DHT22;63889;50.596;8.690;2022-11-20T01:50:05;2.40;99.90
14170;DHT22;63889;50.596;8.690;2022-11-20T01:52:36;2.40;99.90
14170;DHT22;63889;50.596;8.690;2022-11-20T01:55:10;2.40;99.90
14170;DHT22;63889;50.596;8.690;2022-11-20T01:57:38;2.40;99.90
14170;DHT22;63889;50.596;8.690;2022-11-20T02:00:11;2.40;99.90
14170;DHT22;63889;50.596;8.690;2022-11-20T02:02:37;2.40;99.90
14170;DHT22;63889;50.596;8.690;2022-11-20T02:07:52;2.40;99.90
14170;DHT22;63889;50.596;8.690;2022-11-20T02:10:20;2.40;99.90
14170;DHT22;63889;50.596;8.690;2022-11-20T02:12:45;2.20;99.90
14170;DHT22;63889;50.596;8.690;2022-11-20T02:15:31;2.10;99.90
14170;DHT22;63889;50.596;8.690;2022-11-20T02:17:57;2.10;99.90
14170;DHT22;63889;50.596;8.690;2022-11-20T02:20:23;1.80;99.90
14170;DHT22;63889;50.596;8.690;2022-11-20T02:22:54;1.80;99.90
14170;DHT22;63889;50.596;8.690;2022-11-20T02:25:23;1.90;99.90
14170;DHT22;63889;50.596;8.690;2022-11-20T02:27:50;2.10;99.90
14170;DHT22;63889;50.596;8.690;2022-11-20T02:30:16;2.30;99.90
14170;DHT22;63889;50.596;8.690;2022-11-20T02:32:42;2.20;99.90
14170;DHT22;63889;50.596;8.690;2022-11-20T02:37:48;1.90;99.90
14170;DHT22;63889;50.596;8.690;2022-11-20T02:40:14;2.10;99.90
14170;DHT22;63889;50.596;8.690;2022-11-20T02:42:39;2.30;99.90
14170;DHT22;63889;50.596;8.690;2022-11-20T02:45:05;2.40;99.90
14170;DHT22;63889;50.596;8.690;2022-11-20T02:47:31;2.50;99.90
14170;DHT22;63889;50.596;8.690;2022-11-20T02:49:57;2.60;99.90
14170;DHT22;63889;50.596;8.690;2022-11-20T02:52:23;2.50;99.90
14170;DHT22;63889;50.596;8.690;2022-11-20T02:54:49;2.40;99.90
14170;DHT22;63889;50.596;8.690;2022-11-20T02:57:14;2.40;99.90
14170;DHT22;63889;50.596;8.690;2022-11-20T02:59:40;2.30;99.90
14170;DHT22;63889;50.596;8.690;2022-11-20T03:02:05;2.30;99.90
14170;DHT22;63889;50.596;8.690;2022-11-20T03:04:31;2.40;99.90
14170;DHT22;63889;50.596;8.690;2022-11-20T03:06:56;2.40;99.90
14170;DHT22;63889;50.596;8.690;2022-11-20T03:09:22;2.30;99.90
14170;DHT22;63889;50.596;8.690;2022-11-20T03:11:48;2.30;99.90
14170;DHT22;63889;50.596;8.690;2022-11-20T03:14:13;2.20;99.90
14170;DHT22;63889;50.596;8.690;2022-11-20T03:16:39;2.20;99.90
14170;DHT22;63889;50.596;8.690;2022-11-20T03:19:05;2.30;99.90
14170;DHT22;63889;50.596;8.690;2022-11-20T03:21:33;2.40;99.90
14170;DHT22;63889;50.596;8.690;2022-11-20T03:23:58;2.50;99.90
14170;DHT22;63889;50.596;8.690;2022-11-20T03:26:25;2.50;99.90
14170;DHT22;63889;50.596;8.690;2022-11-20T03:28:53;2.10;99.90
14170;DHT22;63889;50.596;8.690;2022-11-20T03:31:22;1.80;99.90
14170;DHT22;63889;50.596;8.690;2022-11-20T03:33:48;1.60;99.90
14170;DHT22;63889;50.596;8.690;2022-11-20T03:36:15;1.60;99.90
14170;DHT22;63889;50.596;8.690;2022-11-20T03:38:41;1.50;99.90
14170;DHT22;63889;50.596;8.690;2022-11-20T03:41:15;1.80;99.90
14170;DHT22;63889;50.596;8.690;2022-11-20T03:43:41;2.10;99.90
14170;DHT22;63889;50.596;8.690;2022-11-20T03:46:07;2.20;99.90
14170;DHT22;63889;50.596;8.690;2022-11-20T03:48:33;2.30;99.90
14170;DHT22;63889;50.596;8.690;2022-11-20T03:51:12;2.40;99.90
14170;DHT22;63889;50.596;8.690;2022-11-20T03:53:39;2.50;99.90
14170;DHT22;63889;50.596;8.690;2022-11-20T03:56:05;2.30;99.90
14170;DHT22;63889;50.596;8.690;2022-11-20T03:58:31;2.20;99.90
14170;DHT22;63889;50.596;8.690;2022-11-20T04:00:57;2.20;99.90
14170;DHT22;63889;50.596;8.690;2022-11-20T04:03:23;2.10;99.90
14170;DHT22;63889;50.596;8.690;2022-11-20T04:05:48;2.10;99.90
14170;DHT22;63889;50.596;8.690;2022-11-20T04:08:14;2.20;99.90
14170;DHT22;63889;50.596;8.690;2022-11-20T04:10:39;2.30;99.90
14170;DHT22;63889;50.596;8.690;2022-11-20T04:13:05;2.20;99.90
14170;DHT22;63889;50.596;8.690;2022-11-20T04:15:30;1.80;99.90
14170;DHT22;63889;50.596;8.690;2022-11-20T04:17:56;1.80;99.90
14170;DHT22;63889;50.596;8.690;2022-11-20T04:20:21;1.80;99.90
14170;DHT22;63889;50.596;8.690;2022-11-20T04:22:47;1.60;99.90
14170;DHT22;63889;50.596;8.690;2022-11-20T04:25:12;1.30;99.90
14170;DHT22;63889;50.596;8.690;2022-11-20T04:27:38;1.40;99.90
14170;DHT22;63889;50.596;8.690;2022-11-20T04:30:04;1.70;99.90
14170;DHT22;63889;50.596;8.690;2022-11-20T04:32:29;2.00;99.90
14170;DHT22;63889;50.596;8.690;2022-11-20T04:34:55;2.30;99.90
14170;DHT22;63889;50.596;8.690;2022-11-20T04:37:20;2.30;99.90
14170;DHT22;63889;50.596;8.690;2022-11-20T04:39:46;2.00;99.90
14170;DHT22;63889;50.596;8.690;2022-11-20T04:42:11;1.90;99.90
14170;DHT22;63889;50.596;8.690;2022-11-20T04:44:55;1.80;99.90
14170;DHT22;63889;50.596;8.690;2022-11-20T04:47:22;1.80;99.90
14170;DHT22;63889;50.596;8.690;2022-11-20T04:49:47;1.90;99.90
14170;DHT22;63889;50.596;8.690;2022-11-20T04:52:13;1.80;99.90
14170;DHT22;63889;50.596;8.690;2022-11-20T04:54:39;1.90;99.90
14170;DHT22;63889;50.596;8.690;2022-11-20T04:57:05;2.10;99.90
14170;DHT22;63889;50.596;8.690;2022-11-20T04:59:31;2.30;99.90
14170;DHT22;63889;50.596;8.690;2022-11-20T05:01:56;2.50;99.90
14170;DHT22;63889;50.596;8.690;2022-11-20T05:04:22;2.60;99.90
14170;DHT22;63889;50.596;8.690;2022-11-20T05:06:49;2.60;99.90
14170;DHT22;63889;50.596;8.690;2022-11-20T05:09:15;2.60;99.90
14170;DHT22;63889;50.596;8.690;2022-11-20T05:11:40;2.60;99.90
14170;DHT22;63889;50.596;8.690;2022-11-20T05:14:06;2.60;99.90
14170;DHT22;63889;50.596;8.690;2022-11-20T05:16:34;2.40;99.90
14170;DHT22;63889;50.596;8.690;2022-11-20T05:19:00;2.30;99.90
14170;DHT22;63889;50.596;8.690;2022-11-20T05:21:26;2.20;99.90
14170;DHT22;63889;50.596;8.690;2022-11-20T05:23:51;2.40;99.90
14170;DHT22;63889;50.596;8.690;2022-11-20T05:26:22;2.60;99.90
14170;DHT22;63889;50.596;8.690;2022-11-20T05:28:49;2.60;99.90
14170;DHT22;63889;50.596;8.690;2022-11-20T05:31:20;2.60;99.90
14170;DHT22;63889;50.596;8.690;2022-11-20T05:33:46;2.70;99.90
14170;DHT22;63889;50.596;8.690;2022-11-20T05:36:13;2.60;99.90
14170;DHT22;63889;50.596;8.690;2022-11-20T05:38:39;2.70;99.90
14170;DHT22;63889;50.596;8.690;2022-11-20T05:41:07;2.50;99.90
14170;DHT22;63889;50.596;8.690;2022-11-20T05:43:37;2.10;99.90
14170;DHT22;63889;50.596;8.690;2022-11-20T05:46:05;2.10;99.90
14170;DHT22;63889;50.596;8.690;2022-11-20T05:48:31;1.90;99.90
14170;DHT22;63889;50.596;8.690;2022-11-20T05:50:58;2.00;99.90
14170;DHT22;63889;50.596;8.690;2022-11-20T05:53:24;2.10;99.90
14170;DHT22;63889;50.596;8.690;2022-11-20T05:56:20;1.80;99.90
14170;DHT22;63889;50.596;8.690;2022-11-20T05:58:46;1.70;99.90
14170;DHT22;63889;50.596;8.690;2022-11-20T06:01:18;1.70;99.90
14170;DHT22;63889;50.596;8.690;2022-11-20T06:03:44;1.60;99.90
14170;DHT22;63889;50.596;8.690;2022-11-20T06:06:17;1.80;99.90
14170;DHT22;63889;50.596;8.690;2022-11-20T06:08:44;1.80;99.90
14170;DHT22;63889;50.596;8.690;2022-11-20T06:11:11;2.00;99.90
14170;DHT22;63889;50.596;8.690;2022-11-20T06:13:37;2.10;99.90
14170;DHT22;63889;50.596;8.690;2022-11-20T06:16:03;2.20;99.90
14170;DHT22;63889;50.596;8.690;2022-11-20T06:18:29;2.40;99.90
14170;DHT22;63889;50.596;8.690;2022-11-20T06:21:03;2.50;99.90
14170;DHT22;63889;50.596;8.690;2022-11-20T06:23:32;2.60;99.90
14170;DHT22;63889;50.596;8.690;2022-11-20T06:26:04;2.70;99.90
14170;DHT22;63889;50.596;8.690;2022-11-20T06:28:31;2.70;99.90
14170;DHT22;63889;50.596;8.690;2022-11-20T06:30:57;2.70;99.90
14170;DHT22;63889;50.596;8.690;2022-11-20T06:33:22;2.50;99.90
14170;DHT22;63889;50.596;8.690;2022-11-20T06:35:48;2.20;99.90
14170;DHT22;63889;50.596;8.690;2022-11-20T06:38:13;2.00;99.90
14170;DHT22;63889;50.596;8.690;2022-11-20T06:40:42;2.00;99.90
14170;DHT22;63889;50.596;8.690;2022-11-20T06:43:11;1.90;99.90
14170;DHT22;63889;50.596;8.690;2022-11-20T06:45:37;2.00;99.90
14170;DHT22;63889;50.596;8.690;2022-11-20T06:48:03;2.10;99.90
14170;DHT22;63889;50.596;8.690;2022-11-20T06:50:29;2.10;99.90
14170;DHT22;63889;50.596;8.690;2022-11-20T06:52:54;2.30;99.90
14170;DHT22;63889;50.596;8.690;2022-11-20T06:55:20;2.20;99.90
14170;DHT22;63889;50.596;8.690;2022-11-20T06:57:45;2.10;99.90
14170;DHT22;63889;50.596;8.690;2022-11-20T07:00:11;2.00;99.90
14170;DHT22;63889;50.596;8.690;2022-11-20T07:02:37;2.00;99.90
14170;DHT22;63889;50.596;8.690;2022-11-20T07:05:03;2.00;99.90
14170;DHT22;63889;50.596;8.690;2022-11-20T07:07:29;2.20;99.90
14170;DHT22;63889;50.596;8.690;2022-11-20T07:09:54;2.30;99.90
14170;DHT22;63889;50.596;8.690;2022-11-20T07:12:20;2.40;99.90
14170;DHT22;63889;50.596;8.690;2022-11-20T07:14:45;2.50;99.90
14170;DHT22;63889;50.596;8.690;2022-11-20T07:17:11;2.30;99.90
14170;DHT22;63889;50.596;8.690;2022-11-20T07:19:37;2.40;99.90
14170;DHT22;63889;50.596;8.690;2022-11-20T07:22:02;2.60;99.90
14170;DHT22;63889;50.596;8.690;2022-11-20T07:24:28;2.80;99.90
14170;DHT22;63889;50.596;8.690;2022-11-20T07:26:53;2.80;99.90
14170;DHT22;63889;50.596;8.690;2022-11-20T07:29:19;2.80;99.90
14170;DHT22;63889;50.596;8.690;2022-11-20T07:31:44;2.90;99.90
14170;DHT22;63889;50.596;8.690;2022-11-20T07:34:10;2.80;99.90
14170;DHT22;63889;50.596;8.690;2022-11-20T07:36:36;2.90;99.90
14170;DHT22;63889;50.596;8.690;2022-11-20T07:39:01;2.90;99.90
14170;DHT22;63889;50.596;8.690;2022-11-20T07:41:27;2.90;99.90
14170;DHT22;63889;50.596;8.690;2022-11-20T07:43:53;2.90;99.90
14170;DHT22;63889;50.596;8.690;2022-11-20T07:46:18;2.90;99.90
14170;DHT22;63889;50.596;8.690;2022-11-20T07:48:44;2.90;99.90
14170;DHT22;63889;50.596;8.690;2022-11-20T07:51:09;2.90;99.90
14170;DHT22;63889;50.596;8.690;2022-11-20T07:53:35;3.00;99.90
14170;DHT22;63889;50.596;8.690;2022-11-20T07:56:01;3.00;99.90
14170;DHT22;63889;50.596;8.690;2022-11-20T07:58:29;3.00;99.90
14170;DHT22;63889;50.596;8.690;2022-11-20T08:00:55;2.90;99.90
14170;DHT22;63889;50.596;8.690;2022-11-20T08:03:21;3.00;99.90
14170;DHT22;63889;50.596;8.690;2022-11-20T08:05:46;3.00;99.90
14170;DHT22;63889;50.596;8.690;2022-11-20T08:08:12;3.00;99.90
14170;DHT22;63889;50.596;8.690;2022-11-20T08:10:37;3.00;99.90
14170;DHT22;63889;50.596;8.690;2022-11-20T08:13:03;2.90;99.90
14170;DHT22;63889;50.596;8.690;2022-11-20T08:15:49;3.00;99.90
14170;DHT22;63889;50.596;8.690;2022-11-20T08:18:17;3.00;99.90
14170;DHT22;63889;50.596;8.690;2022-11-20T08:20:43;3.00;99.90
14170;DHT22;63889;50.596;8.690;2022-11-20T08:23:09;3.10;99.90
14170;DHT22;63889;50.596;8.690;2022-11-20T08:25:36;3.10;99.90
14170;DHT22;63889;50.596;8.690;2022-11-20T08:28:06;3.10;99.90
14170;DHT22;63889;50.596;8.690;2022-11-20T08:30:32;3.10;99.90
14170;DHT22;63889;50.596;8.690;2022-11-20T08:33:04;3.20;99.90
14170;DHT22;63889;50.596;8.690;2022-11-20T08:35:33;3.20;99.90
14170;DHT22;63889;50.596;8.690;2022-11-20T08:38:00;3.30;99.90
14170;DHT22;63889;50.596;8.690;2022-11-20T08:40:25;3.40;99.90
14170;DHT22;63889;50.596;8.690;2022-11-20T08:42:51;3.40;99.90
14170;DHT22;63889;50.596;8.690;2022-11-20T08:45:18;3.50;99.90
14170;DHT22;63889;50.596;8.690;2022-11-20T08:47:44;3.40;99.90
14170;DHT22;63889;50.596;8.690;2022-11-20T08:50:11;3.40;99.90
14170;DHT22;63889;50.596;8.690;2022-11-20T08:52:37;3.50;99.90
14170;DHT22;63889;50.596;8.690;2022-11-20T08:55:04;3.70;99.90
14170;DHT22;63889;50.596;8.690;2022-11-20T08:57:37;3.60;99.90
14170;DHT22;63889;50.596;8.690;2022-11-20T09:00:05;3.50;99.90
14170;DHT22;63889;50.596;8.690;2022-11-20T09:02:31;3.50;99.90
14170;DHT22;63889;50.596;8.690;2022-11-20T09:04:57;3.50;99.90
14170;DHT22;63889;50.596;8.690;2022-11-20T09:07:23;3.40;99.90
14170;DHT22;63889;50.596;8.690;2022-11-20T09:09:48;3.30;99.90
14170;DHT22;63889;50.596;8.690;2022-11-20T09:12:14;3.10;99.90
14170;DHT22;63889;50.596;8.690;2022-11-20T09:14:40;3.30;99.90
14170;DHT22;63889;50.596;8.690;2022-11-20T09:17:05;3.30;99.90
14170;DHT22;63889;50.596;8.690;2022-11-20T09:19:33;3.40;99.90
14170;DHT22;63889;50.596;8.690;2022-11-20T09:21:58;3.40;99.90
14170;DHT22;63889;50.596;8.690;2022-11-20T09:24:25;3.50;99.90
14170;DHT22;63889;50.596;8.690;2022-11-20T09:26:51;3.50;99.90
14170;DHT22;63889;50.596;8.690;2022-11-20T09:29:16;3.60;99.90
14170;DHT22;63889;50.596;8.690;2022-11-20T09:31:42;3.60;99.90
14170;DHT22;63889;50.596;8.690;2022-11-20T09:34:08;3.60;99.90
14170;DHT22;63889;50.596;8.690;2022-11-20T09:36:33;3.60;99.90
14170;DHT22;63889;50.596;8.690;2022-11-20T09:38:59;3.60;99.90
14170;DHT22;63889;50.596;8.690;2022-11-20T09:41:48;3.60;99.90
14170;DHT22;63889;50.596;8.690;2022-11-20T09:47:09;3.60;99.90
14170;DHT22;63889;50.596;8.690;2022-11-20T09:49:59;3.40;99.90
14170;DHT22;63889;50.596;8.690;2022-11-20T09:52:50;3.10;99.90
14170;DHT22;63889;50.596;8.690;2022-11-20T09:55:20;3.10;99.90
14170;DHT22;63889;50.596;8.690;2022-11-20T09:57:48;3.00;99.90
14170;DHT22;63889;50.596;8.690;2022-11-20T10:00:16;3.00;99.90
14170;DHT22;63889;50.596;8.690;2022-11-20T10:02:55;2.90;99.90
14170;DHT22;63889;50.596;8.690;2022-11-20T10:05:44;2.90;99.90
14170;DHT22;63889;50.596;8.690;2022-11-20T10:08:21;2.80;99.90
14170;DHT22;63889;50.596;8.690;2022-11-20T10:11:05;2.70;99.90
14170;DHT22;63889;50.596;8.690;2022-11-20T10:30:08;3.90;99.90
14170;DHT22;63889;50.596;8.690;2022-11-20T10:32:40;4.10;99.90
14170;DHT22;63889;50.596;8.690;2022-11-20T10:37:44;4.20;99.90
14170;DHT22;63889;50.596;8.690;2022-11-20T10:40:41;4.20;99.90
14170;DHT22;63889;50.596;8.690;2022-11-20T10:43:10;4.30;99.90
14170;DHT22;63889;50.596;8.690;2022-11-20T10:45:57;4.40;99.90
14170;DHT22;63889;50.596;8.690;2022-11-20T10:48:25;4.60;99.90
14170;DHT22;63889;50.596;8.690;2022-11-20T10:53:47;4.80;99.90
14170;DHT22;63889;50.596;8.690;2022-11-20T11:01:26;4.10;99.90
14170;DHT22;63889;50.596;8.690;2022-11-20T11:03:53;4.20;99.90
14170;DHT22;63889;50.596;8.690;2022-11-20T11:06:21;4.30;99.90
14170;DHT22;63889;50.596;8.690;2022-11-20T11:08:51;4.40;99.90
14170;DHT22;63889;50.596;8.690;2022-11-20T11:11:30;4.50;99.90
14170;DHT22;63889;50.596;8.690;2022-11-20T11:14:14;4.60;99.90
14170;DHT22;63889;50.596;8.690;2022-11-20T11:16:54;4.50;99.90
14170;DHT22;63889;50.596;8.690;2022-11-20T11:19:20;4.60;99.90
14170;DHT22;63889;50.596;8.690;2022-11-20T11:21:47;4.60;99.90
14170;DHT22;63889;50.596;8.690;2022-11-20T11:24:25;4.60;99.90
14170;DHT22;63889;50.596;8.690;2022-11-20T11:26:59;4.60;99.90
14170;DHT22;63889;50.596;8.690;2022-11-20T11:29:29;4.60;99.90
14170;DHT22;63889;50.596;8.690;2022-11-20T11:34:40;4.70;99.90
14170;DHT22;63889;50.596;8.690;2022-11-20T11:37:17;4.70;99.90
14170;DHT22;63889;50.596;8.690;2022-11-20T11:39:44;4.80;99.90
14170;DHT22;63889;50.596;8.690;2022-11-20T11:42:15;4.80;99.90
14170;DHT22;63889;50.596;8.690;2022-11-20T11:44:45;4.60;99.90
14170;DHT22;63889;50.596;8.690;2022-11-20T11:47:46;4.50;99.90
14170;DHT22;63889;50.596;8.690;2022-11-20T11:50:21;4.50;99.90
14170;DHT22;63889;50.596;8.690;2022-11-20T11:53:12;4.60;99.90
14170;DHT22;63889;50.596;8.690;2022-11-20T12:04:20;4.50;99.90
14170;DHT22;63889;50.596;8.690;2022-11-20T12:06:51;4.60;99.90
14170;DHT22;63889;50.596;8.690;2022-11-20T12:09:20;4.40;99.90
14170;DHT22;63889;50.596;8.690;2022-11-20T12:12:02;4.30;99.90
14170;DHT22;63889;50.596;8.690;2022-11-20T12:14:41;4.40;99.90
14170;DHT22;63889;50.596;8.690;2022-11-20T12:17:12;4.50;99.90
14170;DHT22;63889;50.596;8.690;2022-11-20T12:19:38;4.20;99.90
14170;DHT22;63889;50.596;8.690;2022-11-20T12:24:47;4.30;99.90
14170;DHT22;63889;50.596;8.690;2022-11-20T12:30:07;4.40;99.90
14170;DHT22;63889;50.596;8.690;2022-11-20T12:33:08;4.40;99.90
14170;DHT22;63889;50.596;8.690;2022-11-20T12:39:02;4.70;99.90
14170;DHT22;63889;50.596;8.690;2022-11-20T12:44:43;4.60;99.90
14170;DHT22;63889;50.596;8.690;2022-11-20T12:50:17;4.80;99.90
14170;DHT22;63889;50.596;8.690;2022-11-20T12:53:04;4.60;99.90
14170;DHT22;63889;50.596;8.690;2022-11-20T13:00:40;4.80;99.90
14170;DHT22;63889;50.596;8.690;2022-11-20T13:05:55;5.20;99.90
14170;DHT22;63889;50.596;8.690;2022-11-20T13:08:28;5.00;99.90
14170;DHT22;63889;50.596;8.690;2022-11-20T13:13:52;4.30;99.90
14170;DHT22;63889;50.596;8.690;2022-11-20T13:19:24;4.50;99.90
14170;DHT22;63889;50.596;8.690;2022-11-20T13:21:50;4.30;99.90
14170;DHT22;63889;50.596;8.690;2022-11-20T13:26:45;4.20;99.90
14170;DHT22;63889;50.596;8.690;2022-11-20T13:29:16;4.20;99.90
14170;DHT22;63889;50.596;8.690;2022-11-20T13:34:39;4.20;99.90
14170;DHT22;63889;50.596;8.690;2022-11-20T13:37:05;4.10;99.90
14170;DHT22;63889;50.596;8.690;2022-11-20T13:39:33;4.10;99.90
14170;DHT22;63889;50.596;8.690;2022-11-20T13:42:00;4.30;99.90
14170;DHT22;63889;50.596;8.690;2022-11-20T13:44:38;4.20;99.90
14170;DHT22;63889;50.596;8.690;2022-11-20T13:47:21;4.30;99.90
14170;DHT22;63889;50.596;8.690;2022-11-20T13:49:47;4.30;99.90
14170;DHT22;63889;50.596;8.690;2022-11-20T13:55:23;4.80;99.90
14170;DHT22;63889;50.596;8.690;2022-11-20T13:58:04;5.00;99.90
14170;DHT22;63889;50.596;8.690;2022-11-20T14:00:31;5.00;99.90
14170;DHT22;63889;50.596;8.690;2022-11-20T14:05:36;5.10;99.90
14170;DHT22;63889;50.596;8.690;2022-11-20T14:08:04;5.20;99.90
14170;DHT22;63889;50.596;8.690;2022-11-20T14:10:31;5.00;99.90
14170;DHT22;63889;50.596;8.690;2022-11-20T14:12:57;4.70;99.90
14170;DHT22;63889;50.596;8.690;2022-11-20T14:15:29;4.60;99.90
14170;DHT22;63889;50.596;8.690;2022-11-20T14:17:55;4.60;99.90
14170;DHT22;63889;50.596;8.690;2022-11-20T14:20:24;4.80;99.90
14170;DHT22;63889;50.596;8.690;2022-11-20T14:22:52;4.80;99.90
14170;DHT22;63889;50.596;8.690;2022-11-20T14:27:51;4.90;99.90
14170;DHT22;63889;50.596;8.690;2022-11-20T14:30:20;4.60;99.90
14170;DHT22;63889;50.596;8.690;2022-11-20T14:32:47;4.40;99.90
14170;DHT22;63889;50.596;8.690;2022-11-20T14:35:18;4.30;99.90
14170;DHT22;63889;50.596;8.690;2022-11-20T14:37:45;4.10;99.90
14170;DHT22;63889;50.596;8.690;2022-11-20T14:40:29;4.00;99.90
14170;DHT22;63889;50.596;8.690;2022-11-20T14:42:57;4.00;99.90
14170;DHT22;63889;50.596;8.690;2022-11-20T14:45:23;4.00;99.90
14170;DHT22;63889;50.596;8.690;2022-11-20T14:47:50;3.90;99.90
14170;DHT22;63889;50.596;8.690;2022-11-20T14:50:26;3.90;99.90
14170;DHT22;63889;50.596;8.690;2022-11-20T14:52:55;3.90;99.90
14170;DHT22;63889;50.596;8.690;2022-11-20T14:55:29;3.90;99.90
14170;DHT22;63889;50.596;8.690;2022-11-20T15:00:30;4.00;99.90
14170;DHT22;63889;50.596;8.690;2022-11-20T15:02:56;4.00;99.90
14170;DHT22;63889;50.596;8.690;2022-11-20T15:05:25;4.00;99.90
14170;DHT22;63889;50.596;8.690;2022-11-20T15:08:07;3.90;99.90
14170;DHT22;63889;50.596;8.690;2022-11-20T15:10:33;4.00;99.90
14170;DHT22;63889;50.596;8.690;2022-11-20T15:13:13;4.10;99.90
14170;DHT22;63889;50.596;8.690;2022-11-20T15:15:50;4.10;99.90
14170;DHT22;63889;50.596;8.690;2022-11-20T15:18:19;4.00;99.90
14170;DHT22;63889;50.596;8.690;2022-11-20T15:20:45;4.00;99.90
14170;DHT22;63889;50.596;8.690;2022-11-20T15:23:13;4.00;99.90
14170;DHT22;63889;50.596;8.690;2022-11-20T15:25:42;3.80;99.90
14170;DHT22;63889;50.596;8.690;2022-11-20T15:30:48;3.90;99.90
14170;DHT22;63889;50.596;8.690;2022-11-20T15:33:14;3.90;99.90
14170;DHT22;63889;50.596;8.690;2022-11-20T15:35:40;4.20;99.90
14170;DHT22;63889;50.596;8.690;2022-11-20T15:38:06;4.10;99.90
14170;DHT22;63889;50.596;8.690;2022-11-20T15:40:32;4.20;99.90
14170;DHT22;63889;50.596;8.690;2022-11-20T15:42:57;4.20;99.90
14170;DHT22;63889;50.596;8.690;2022-11-20T15:45:47;4.20;99.90
14170;DHT22;63889;50.596;8.690;2022-11-20T15:48:20;4.10;99.90
14170;DHT22;63889;50.596;8.690;2022-11-20T15:50:59;4.10;99.90
14170;DHT22;63889;50.596;8.690;2022-11-20T15:53:26;4.10;99.90
14170;DHT22;63889;50.596;8.690;2022-11-20T15:55:52;4.10;99.90
14170;DHT22;63889;50.596;8.690;2022-11-20T15:58:18;4.10;99.90
14170;DHT22;63889;50.596;8.690;2022-11-20T16:00:44;4.10;99.90
14170;DHT22;63889;50.596;8.690;2022-11-20T16:03:14;4.00;99.90
14170;DHT22;63889;50.596;8.690;2022-11-20T16:05:40;3.90;99.90
14170;DHT22;63889;50.596;8.690;2022-11-20T16:08:05;4.00;99.90
14170;DHT22;63889;50.596;8.690;2022-11-20T16:10:31;4.10;99.90
14170;DHT22;63889;50.596;8.690;2022-11-20T16:12:56;4.00;99.90
14170;DHT22;63889;50.596;8.690;2022-11-20T16:15:40;3.90;99.90
14170;DHT22;63889;50.596;8.690;2022-11-20T16:18:17;3.90;99.90
14170;DHT22;63889;50.596;8.690;2022-11-20T16:20:48;4.00;99.90
14170;DHT22;63889;50.596;8.690;2022-11-20T16:23:14;3.90;99.90
14170;DHT22;63889;50.596;8.690;2022-11-20T16:25:41;4.00;99.90
14170;DHT22;63889;50.596;8.690;2022-11-20T16:28:06;3.90;99.90
14170;DHT22;63889;50.596;8.690;2022-11-20T16:30:32;3.90;99.90
14170;DHT22;63889;50.596;8.690;2022-11-20T16:32:59;3.90;99.90
14170;DHT22;63889;50.596;8.690;2022-11-20T16:35:31;4.00;99.90
14170;DHT22;63889;50.596;8.690;2022-11-20T16:37:57;4.20;99.90
14170;DHT22;63889;50.596;8.690;2022-11-20T16:40:24;4.20;99.90
14170;DHT22;63889;50.596;8.690;2022-11-20T16:42:50;4.10;99.90
14170;DHT22;63889;50.596;8.690;2022-11-20T16:45:16;4.20;99.90
14170;DHT22;63889;50.596;8.690;2022-11-20T16:47:42;4.10;99.90
14170;DHT22;63889;50.596;8.690;2022-11-20T16:50:08;4.10;99.90
14170;DHT22;63889;50.596;8.690;2022-11-20T16:52:34;4.00;99.90
14170;DHT22;63889;50.596;8.690;2022-11-20T16:55:29;4.10;99.90
14170;DHT22;63889;50.596;8.690;2022-11-20T16:57:55;4.00;99.90
14170;DHT22;63889;50.596;8.690;2022-11-20T17:00:20;4.00;99.90
14170;DHT22;63889;50.596;8.690;2022-11-20T17:02:46;4.10;99.90
14170;DHT22;63889;50.596;8.690;2022-11-20T17:05:11;4.10;99.90
14170;DHT22;63889;50.596;8.690;2022-11-20T17:07:37;4.20;99.90
14170;DHT22;63889;50.596;8.690;2022-11-20T17:10:03;4.30;99.90
14170;DHT22;63889;50.596;8.690;2022-11-20T17:12:29;4.30;99.90
14170;DHT22;63889;50.596;8.690;2022-11-20T17:14:54;4.30;99.90
14170;DHT22;63889;50.596;8.690;2022-11-20T17:17:20;4.40;99.90
14170;DHT22;63889;50.596;8.690;2022-11-20T17:19:45;4.60;99.90
14170;DHT22;63889;50.596;8.690;2022-11-20T17:22:11;4.80;99.90
14170;DHT22;63889;50.596;8.690;2022-11-20T17:24:36;4.90;99.90
14170;DHT22;63889;50.596;8.690;2022-11-20T17:27:02;4.90;99.90
14170;DHT22;63889;50.596;8.690;2022-11-20T17:29:28;4.90;99.90